createdAt,value
2022-09-04T00:02:41.102Z,19.25
2022-09-04T00:07:00.080Z,19.04
2022-09-04T00:11:44.734Z,19.38
2022-09-04T00:15:57.099Z,19.57
2022-09-04T00:20:46.299Z,19.84
2022-09-04T00:24:53.796Z,19.94
2022-09-04T00:29:00.905Z,20.03
2022-09-04T00:33:09.695Z,20.09
2022-09-04T00:37:16.531Z,19.89
2022-09-04T00:41:46.033Z,19.88
2022-09-04T00:46:05.354Z,20.04
2022-09-04T00:50:43.170Z,20.21
2022-09-04T00:55:19.542Z,20.18
2022-09-04T00:59:50.594Z,20.09
2022-09-04T01:04:31.860Z,20.09
2022-09-04T01:08:47.380Z,19.95
2022-09-04T01:13:16.892Z,19.84
2022-09-04T01:17:34.099Z,19.95
2022-09-04T01:21:52.406Z,20.03
2022-09-04T01:26:28.113Z,19.82
2022-09-04T01:30:25.993Z,20.22
2022-09-04T01:35:26.243Z,20.13
2022-09-04T01:39:29.252Z,19.75
2022-09-04T01:43:26.524Z,19.32
2022-09-04T01:47:46.544Z,19.40
2022-09-04T01:52:12.986Z,19.35
2022-09-04T01:56:32.714Z,19.17
2022-09-04T02:00:53.715Z,18.84
2022-09-04T02:05:09.828Z,19.06
2022-09-04T02:09:22.511Z,18.85
2022-09-04T02:13:53.861Z,19.37
2022-09-04T02:18:16.694Z,19.03
2022-09-04T02:22:40.040Z,19.29
2022-09-04T02:27:03.971Z,19.22
2022-09-04T02:31:20.174Z,19.38
2022-09-04T02:35:34.909Z,19.39
2022-09-04T02:40:25.050Z,19.03
2022-09-04T02:45:10.627Z,18.83
2022-09-04T02:49:25.063Z,18.83
2022-09-04T02:54:04.374Z,18.80
2022-09-04T02:58:44.221Z,18.77
2022-09-04T03:03:07.126Z,18.80
2022-09-04T03:07:18.397Z,18.78
2022-09-04T03:11:36.712Z,18.83
2022-09-04T03:16:10.316Z,18.75
2022-09-04T03:20:23.379Z,18.72
2022-09-04T03:24:34.654Z,18.97
2022-09-04T03:29:15.246Z,19.05
2022-09-04T03:33:29.390Z,18.47
2022-09-04T03:37:55.718Z,19.17
2022-09-04T03:42:30.702Z,18.87
2022-09-04T03:46:36.704Z,18.99
2022-09-04T03:51:15.349Z,19.04
2022-09-04T03:55:48.084Z,19.02
2022-09-04T04:00:10.203Z,19.11
2022-09-04T04:04:48.892Z,18.93
2022-09-04T04:09:22.368Z,18.92
2022-09-04T04:14:07.249Z,19.12
2022-09-04T04:18:39.198Z,19.07
2022-09-04T04:23:23.009Z,19.14
2022-09-04T04:27:38.750Z,19.09
2022-09-04T04:32:26.480Z,19.26
2022-09-04T04:36:51.887Z,19.17
2022-09-04T04:41:14.702Z,18.78
2022-09-04T04:45:51.985Z,19.05
2022-09-04T04:50:16.217Z,19.31
2022-09-04T04:54:35.130Z,19.23
2022-09-04T04:58:58.922Z,18.86
2022-09-04T05:03:43.203Z,18.88
2022-09-04T05:08:08.180Z,18.77
2022-09-04T05:12:29.287Z,18.89
2022-09-04T05:16:52.227Z,18.56
2022-09-04T05:21:21.906Z,19.10
2022-09-04T05:25:39.170Z,19.15
2022-09-04T05:30:12.591Z,19.11
2022-09-04T05:34:27.749Z,19.34
2022-09-04T05:38:47.044Z,18.97
2022-09-04T05:43:03.952Z,19.19
2022-09-04T05:47:30.794Z,19.33
2022-09-04T05:51:43.499Z,19.44
2022-09-04T05:56:25.352Z,19.26
2022-09-04T06:00:22.617Z,18.98
2022-09-04T06:05:11.070Z,18.96
2022-09-04T06:09:46.778Z,18.85
2022-09-04T06:14:23.210Z,19.04
2022-09-04T06:18:32.126Z,19.34
2022-09-04T06:22:49.505Z,19.49
2022-09-04T06:27:43.109Z,19.30
2022-09-04T06:32:08.177Z,19.53
2022-09-04T06:36:42.306Z,19.68
2022-09-04T06:41:00.851Z,19.87
2022-09-04T06:45:09.998Z,19.94
2022-09-04T06:49:59.306Z,20.20
2022-09-04T06:54:43.678Z,20.42
2022-09-04T06:59:07.203Z,20.50
2022-09-04T07:03:48.590Z,20.46
2022-09-04T07:08:40.754Z,20.50
2022-09-04T07:13:14.064Z,21.00
2022-09-04T07:17:46.042Z,21.24
2022-09-04T07:22:06.996Z,21.40
2022-09-04T07:26:38.758Z,21.56
2022-09-04T07:30:49.929Z,21.11
2022-09-04T07:35:03.052Z,20.76
2022-09-04T07:39:25.523Z,21.27
2022-09-04T07:43:42.465Z,20.67
2022-09-04T07:48:32.098Z,21.30
2022-09-04T07:52:42.907Z,21.58
2022-09-04T07:57:12.669Z,21.65
2022-09-04T08:01:42.682Z,22.06
2022-09-04T08:05:49.575Z,22.07
2022-09-04T08:10:10.731Z,22.03
2022-09-04T08:14:19.858Z,22.38
2022-09-04T08:19:29.685Z,22.78
2022-09-04T08:23:47.398Z,23.07
2022-09-04T08:28:24.573Z,23.57
2022-09-04T08:33:10.201Z,23.71
2022-09-04T08:37:32.871Z,23.77
2022-09-04T08:42:00.805Z,24.38
2022-09-04T08:46:11.833Z,24.99
2022-09-04T08:50:51.754Z,25.88
2022-09-04T08:55:01.926Z,25.86
2022-09-04T08:59:52.606Z,25.25
2022-09-04T09:04:27.442Z,24.90
2022-09-04T09:09:01.222Z,25.67
2022-09-04T09:14:01.836Z,26.17
2022-09-04T09:18:48.930Z,26.59
2022-09-04T09:23:18.714Z,26.76
2022-09-04T09:27:37.175Z,27.07
2022-09-04T09:32:29.045Z,27.86
2022-09-04T09:37:06.837Z,28.61
2022-09-04T09:41:51.898Z,28.67
2022-09-04T09:46:08.416Z,28.93
2022-09-04T09:50:40.179Z,29.10
2022-09-04T09:55:18.513Z,30.29
2022-09-04T09:59:49.682Z,30.67
2022-09-04T10:04:46.182Z,31.79
2022-09-04T10:09:39.944Z,32.95
2022-09-04T10:14:25.444Z,30.22
2022-09-04T10:18:59.816Z,31.67
2022-09-04T10:23:05.763Z,33.16
2022-09-04T10:27:15.347Z,34.55
2022-09-04T10:31:38.565Z,34.97
2022-09-04T10:35:44.280Z,35.03
2022-09-04T10:40:29.832Z,35.71
2022-09-04T10:45:00.173Z,36.40
2022-09-04T10:49:59.807Z,35.90
2022-09-04T10:54:17.071Z,36.83
2022-09-04T10:58:59.023Z,37.10
2022-09-04T11:03:11.386Z,37.38
2022-09-04T11:07:36.913Z,37.16
2022-09-04T11:11:49.317Z,36.85
2022-09-04T11:16:05.542Z,36.61
2022-09-04T11:20:39.997Z,36.90
2022-09-04T11:25:13.650Z,37.45
2022-09-04T11:29:46.680Z,37.55
2022-09-04T11:34:40.193Z,38.10
2022-09-04T11:39:14.636Z,38.60
2022-09-04T11:43:56.934Z,38.76
2022-09-04T11:48:22.929Z,37.76
2022-09-04T11:53:26.335Z,38.75
2022-09-04T11:58:19.408Z,39.64
2022-09-04T12:02:57.497Z,39.88
2022-09-04T12:07:12.520Z,40.48
2022-09-04T12:12:00.478Z,41.48
2022-09-04T12:16:44.476Z,41.56
2022-09-04T12:21:18.255Z,41.52
2022-09-04T12:25:36.498Z,40.55
2022-09-04T12:30:05.236Z,39.99
2022-09-04T12:34:59.858Z,41.44
2022-09-04T12:39:43.100Z,42.09
2022-09-04T12:44:01.760Z,40.51
2022-09-04T12:48:33.050Z,38.46
2022-09-04T12:53:19.270Z,36.83
2022-09-04T12:57:38.471Z,34.83
2022-09-04T13:02:04.434Z,33.86
2022-09-04T13:06:23.098Z,35.39
2022-09-04T13:10:34.101Z,36.59
2022-09-04T13:14:48.238Z,37.65
2022-09-04T13:19:18.192Z,35.51
2022-09-04T13:23:54.728Z,35.56
2022-09-04T13:28:25.546Z,36.09
2022-09-04T13:32:35.754Z,36.71
2022-09-04T13:37:04.558Z,36.40
2022-09-04T13:41:34.635Z,36.17
2022-09-04T13:45:59.331Z,36.30
2022-09-04T13:50:10.103Z,36.61
2022-09-04T13:54:36.748Z,37.12
2022-09-04T13:58:51.530Z,37.18
2022-09-04T14:02:56.692Z,36.09
2022-09-04T14:07:08.008Z,35.90
2022-09-04T14:11:34.191Z,35.85
2022-09-04T14:16:03.878Z,36.60
2022-09-04T14:20:23.498Z,35.99
2022-09-04T14:24:33.038Z,35.88
2022-09-04T14:28:51.478Z,35.97
2022-09-04T14:33:07.727Z,36.14
2022-09-04T14:37:42.704Z,35.62
2022-09-04T14:42:23.729Z,35.11
2022-09-04T14:46:35.067Z,35.76
2022-09-04T14:50:51.978Z,35.60
2022-09-04T14:54:55.639Z,35.08
2022-09-04T14:59:11.186Z,35.91
2022-09-04T15:03:18.663Z,36.33
2022-09-04T15:07:53.620Z,36.17
2022-09-04T15:12:20.892Z,36.26
2022-09-04T15:16:32.425Z,36.35
2022-09-04T15:20:33.024Z,35.87
2022-09-04T15:24:58.537Z,35.88
2022-09-04T15:29:17.517Z,36.15
2022-09-04T15:33:20.056Z,35.19
2022-09-04T15:37:28.751Z,36.11
2022-09-04T15:41:34.831Z,36.18
2022-09-04T15:46:03.159Z,35.65
2022-09-04T15:50:22.065Z,35.85
2022-09-04T15:54:31.839Z,36.07
2022-09-04T15:58:51.228Z,36.54
2022-09-04T16:03:23.229Z,34.99
2022-09-04T16:07:46.622Z,35.70
2022-09-04T16:12:04.343Z,35.03
2022-09-04T16:16:18.164Z,35.20
2022-09-04T16:20:45.307Z,34.83
2022-09-04T16:24:47.691Z,34.57
2022-09-04T16:28:56.021Z,34.60
2022-09-04T16:32:53.116Z,34.12
2022-09-04T16:37:10.477Z,33.96
2022-09-04T16:41:25.935Z,33.67
2022-09-04T16:45:39.888Z,32.92
2022-09-04T16:50:05.993Z,32.41
2022-09-04T16:54:35.558Z,32.09
2022-09-04T16:58:42.612Z,31.96
2022-09-04T17:02:48.830Z,31.90
2022-09-04T17:07:02.997Z,31.60
2022-09-04T17:11:22.830Z,31.40
2022-09-04T17:15:37.677Z,31.52
2022-09-04T17:19:34.858Z,31.67
2022-09-04T17:28:56.809Z,31.33
2022-09-04T17:29:12.480Z,30.62
2022-09-04T17:40:35.546Z,29.16
2022-09-04T17:40:35.593Z,29.88
2022-09-04T17:42:15.694Z,28.72
2022-09-04T17:46:39.898Z,28.26
2022-09-04T17:50:48.146Z,27.85
2022-09-04T17:54:49.262Z,27.31
2022-09-04T17:58:49.965Z,27.25
2022-09-04T18:03:25.727Z,27.30
2022-09-04T18:08:07.732Z,26.70
2022-09-04T18:12:21.510Z,26.79
2022-09-04T18:16:26.176Z,26.06
2022-09-04T18:20:43.756Z,26.23
2022-09-04T18:24:55.222Z,26.23
2022-09-04T18:30:26.100Z,25.75
2022-09-04T18:37:18.384Z,25.36
2022-09-04T18:39:08.929Z,25.31
2022-09-04T18:50:21.946Z,25.30
2022-09-04T18:50:29.200Z,25.17
2022-09-04T18:52:30.007Z,25.05
2022-09-04T18:56:45.160Z,24.81
2022-09-04T19:00:57.752Z,24.71
2022-09-04T19:05:10.204Z,24.29
2022-09-04T19:09:19.830Z,24.51
2022-09-04T19:13:36.185Z,24.34
2022-09-04T19:17:40.630Z,24.31
2022-09-04T19:21:58.191Z,24.12
2022-09-04T19:26:07.479Z,24.04
2022-09-04T19:30:18.942Z,24.17
2022-09-04T19:34:48.731Z,24.15
2022-09-04T19:46:06.281Z,23.85
2022-09-04T19:46:25.703Z,23.64
2022-09-04T19:48:23.494Z,23.51
2022-09-04T19:53:24.171Z,23.47
2022-09-04T19:57:32.191Z,23.51
2022-09-04T20:01:53.273Z,23.25
2022-09-04T20:06:22.446Z,23.31
2022-09-04T20:10:45.365Z,22.92
2022-09-04T20:15:13.945Z,23.39
2022-09-04T20:19:28.371Z,23.44
2022-09-04T20:23:52.525Z,23.05
2022-09-04T20:28:40.210Z,23.20
2022-09-04T20:33:06.499Z,23.12
2022-09-04T20:37:23.096Z,22.86
2022-09-04T20:41:34.729Z,22.55
2022-09-04T20:46:52.686Z,22.60
2022-09-04T20:52:52.414Z,22.42
2022-09-04T20:55:22.894Z,22.55
2022-09-04T21:03:08.847Z,22.31
2022-09-04T21:04:37.657Z,22.09
2022-09-04T21:08:57.172Z,22.06
2022-09-04T21:13:14.406Z,21.85
2022-09-04T21:17:39.050Z,21.57
2022-09-04T21:22:32.560Z,21.77
2022-09-04T21:27:02.068Z,22.03
2022-09-04T21:31:24.481Z,21.93
2022-09-04T21:35:34.034Z,21.79
2022-09-04T21:40:01.984Z,21.83
2022-09-04T21:44:52.143Z,21.77
2022-09-04T21:49:55.766Z,21.81
2022-09-04T21:54:37.681Z,21.83
2022-09-04T22:02:28.231Z,21.73
2022-09-04T22:04:06.049Z,21.61
2022-09-04T22:13:26.663Z,21.62
2022-09-04T22:13:49.445Z,21.56
2022-09-04T22:17:56.344Z,20.89
2022-09-04T22:22:11.503Z,20.89
2022-09-04T22:26:33.430Z,20.87
2022-09-04T22:30:42.127Z,20.90
2022-09-04T22:35:00.817Z,20.78
2022-09-04T22:39:38.688Z,20.66
2022-09-04T22:43:46.525Z,20.61
2022-09-04T22:48:31.465Z,20.65
2022-09-04T22:53:06.802Z,20.35
2022-09-04T22:57:15.133Z,19.96
2022-09-04T23:01:47.766Z,19.90
2022-09-04T23:09:24.911Z,20.00
2022-09-04T23:13:56.886Z,20.07
2022-09-04T23:16:32.111Z,19.85
2022-09-04T23:26:33.528Z,19.93
2022-09-04T23:26:48.840Z,19.83
2022-09-04T23:30:25.698Z,19.86
2022-09-04T23:35:14.865Z,19.70
2022-09-04T23:39:46.587Z,19.64
2022-09-04T23:44:15.536Z,19.52
2022-09-04T23:48:44.007Z,19.09
2022-09-04T23:53:18.001Z,19.21
2022-09-04T23:57:46.664Z,19.21
